Time;durP1;ratioP1;P1;durP2;ratioP2;P2;SDS_P1;SDS_P2;PMS_P1;PMS_P2;Temp;Humidity;BMP_temperature;BMP_pressure;BME280_temperature;BME280_humidity;BME280_pressure;Samples;Min_cycle;Max_cycle;Signal;HPM_P1;HPM_P2
2023/04/24 00:01:26;;;;;;;0.10;0.10;;;;;;;;;;5094143;28;20040;-73
2023/04/24 00:03:52;;;;;;;0.17;0.17;;;;;;;;;;5093982;28;20040;-75
2023/04/24 00:06:17;;;;;;;0.10;0.10;;;;;;;;;;5093894;28;20059;-74
2023/04/24 00:08:42;;;;;;;0.20;0.20;;;;;;;;;;5093774;28;20033;-73
2023/04/24 00:11:09;;;;;;;0.20;0.20;;;;;;;;;;5092509;28;20048;-74
2023/04/24 00:13:34;;;;;;;0.45;0.45;;;;;;;;;;5093622;28;20028;-76
2023/04/24 00:16:00;;;;;;;0.10;0.10;;;;;;;;;;5075566;28;20081;-74
2023/04/24 00:18:26;;;;;;;0.10;0.10;;;;;;;;;;5075574;28;20035;-75
2023/04/24 00:20:51;;;;;;;0.10;0.10;;;;;;;;;;5092994;28;20036;-74
2023/04/24 00:23:16;;;;;;;0.10;0.10;;;;;;;;;;5093504;28;20124;-74
2023/04/24 00:25:42;;;;;;;0.10;0.10;;;;;;;;;;5093395;28;20034;-74
2023/04/24 00:28:07;;;;;;;0.10;0.10;;;;;;;;;;5093247;28;20067;-74
2023/04/24 00:30:33;;;;;;;0.20;0.20;;;;;;;;;;5074974;28;20040;-74
2023/04/24 00:32:59;;;;;;;0.40;0.40;;;;;;;;;;5093149;28;20031;-74
2023/04/24 00:35:24;;;;;;;0.20;0.20;;;;;;;;;;5093281;28;20028;-74
2023/04/24 00:37:50;;;;;;;1.25;0.52;;;;;;;;;;5092956;28;20082;-74
2023/04/24 00:40:15;;;;;;;0.10;0.10;;;;;;;;;;5092993;28;20066;-74
2023/04/24 00:42:42;;;;;;;0.10;0.10;;;;;;;;;;5093309;28;20042;-74
2023/04/24 00:45:08;;;;;;;0.10;0.10;;;;;;;;;;5092905;28;20119;-74
2023/04/24 00:47:34;;;;;;;0.20;0.20;;;;;;;;;;5092983;28;20111;-75
2023/04/24 00:50:06;;;;;;;0.15;0.15;;;;;;;;;;5074962;28;20048;-74
2023/04/24 00:52:32;;;;;;;0.20;0.20;;;;;;;;;;5092960;28;20036;-73
2023/04/24 00:54:58;;;;;;;0.10;0.10;;;;;;;;;;5092891;28;20039;-73
2023/04/24 00:57:24;;;;;;;0.10;0.10;;;;;;;;;;5092893;28;20040;-73
2023/04/24 00:59:50;;;;;;;0.10;0.10;;;;;;;;;;5074507;28;20127;-74
2023/04/24 01:02:15;;;;;;;0.20;0.20;;;;;;;;;;5074899;28;20371;-73
2023/04/24 01:04:41;;;;;;;0.20;0.20;;;;;;;;;;5092654;28;20039;-74
2023/04/24 01:07:10;;;;;;;0.10;0.10;;;;;;;;;;5092709;28;20044;-74
2023/04/24 01:09:36;;;;;;;0.15;0.15;;;;;;;;;;5074846;28;20063;-74
2023/04/24 01:12:02;;;;;;;0.10;0.10;;;;;;;;;;5057935;28;20028;-75
2023/04/24 01:14:28;;;;;;;0.10;0.10;;;;;;;;;;5092593;28;20387;-74
2023/04/24 01:16:53;;;;;;;0.20;0.20;;;;;;;;;;5092629;28;20375;-74
2023/04/24 01:19:19;;;;;;;0.13;0.13;;;;;;;;;;5074561;28;20048;-74
2023/04/24 01:21:46;;;;;;;0.20;0.20;;;;;;;;;;5092586;28;20032;-74
2023/04/24 01:24:11;;;;;;;0.10;0.10;;;;;;;;;;5074446;28;20398;-74
2023/04/24 01:26:37;;;;;;;0.30;0.30;;;;;;;;;;5074404;28;20016;-74
2023/04/24 01:29:02;;;;;;;0.55;0.55;;;;;;;;;;5092181;28;20063;-74
2023/04/24 01:31:28;;;;;;;0.10;0.10;;;;;;;;;;5074217;28;20028;-74
2023/04/24 01:33:54;;;;;;;0.10;0.10;;;;;;;;;;5077274;28;20063;-74
2023/04/24 01:36:20;;;;;;;0.10;0.10;;;;;;;;;;5095965;28;20053;-74
2023/04/24 01:38:45;;;;;;;0.10;0.10;;;;;;;;;;5079208;28;20035;-74
2023/04/24 01:41:11;;;;;;;0.10;0.10;;;;;;;;;;5098626;28;20113;-74
2023/04/24 01:43:36;;;;;;;0.80;0.80;;;;;;;;;;5080264;28;20035;-74
2023/04/24 01:46:02;;;;;;;0.10;0.10;;;;;;;;;;5096645;28;20032;-74
2023/04/24 01:48:27;;;;;;;0.20;0.20;;;;;;;;;;5096334;28;20559;-74
2023/04/24 01:50:52;;;;;;;0.10;0.10;;;;;;;;;;5096024;28;20036;-74
2023/04/24 01:53:18;;;;;;;0.10;0.10;;;;;;;;;;5077596;28;20036;-74
2023/04/24 01:55:43;;;;;;;0.10;0.10;;;;;;;;;;5095884;28;20048;-74
2023/04/24 01:58:11;;;;;;;0.38;0.38;;;;;;;;;;5077368;28;20402;-73
2023/04/24 02:00:37;;;;;;;0.10;0.10;;;;;;;;;;5095753;28;20035;-75
2023/04/24 02:03:02;;;;;;;0.50;0.32;;;;;;;;;;5094589;28;20081;-75
2023/04/24 02:05:28;;;;;;;0.10;0.10;;;;;;;;;;5077647;28;20479;-75
2023/04/24 02:07:54;;;;;;;0.10;0.10;;;;;;;;;;5077249;28;20491;-75
2023/04/24 02:10:20;;;;;;;0.17;0.17;;;;;;;;;;5094378;28;20055;-75
2023/04/24 02:12:45;;;;;;;0.10;0.10;;;;;;;;;;5095491;28;20062;-75
2023/04/24 02:15:11;;;;;;;0.10;0.10;;;;;;;;;;5095461;28;20032;-75
2023/04/24 02:17:36;;;;;;;0.10;0.10;;;;;;;;;;5095595;28;20039;-74
2023/04/24 02:20:03;;;;;;;0.10;0.10;;;;;;;;;;5095546;28;20518;-73
2023/04/24 02:22:28;;;;;;;0.10;0.10;;;;;;;;;;5077692;28;20052;-73
2023/04/24 02:24:54;;;;;;;0.10;0.10;;;;;;;;;;5060610;28;20476;-74
2023/04/24 02:27:19;;;;;;;0.10;0.10;;;;;;;;;;5095440;28;20071;-74
2023/04/24 02:29:45;;;;;;;0.30;0.30;;;;;;;;;;5077038;28;20039;-74
2023/04/24 02:32:11;;;;;;;0.10;0.10;;;;;;;;;;5095126;28;20024;-74
2023/04/24 02:34:37;;;;;;;0.10;0.10;;;;;;;;;;5095272;28;20051;-74
2023/04/24 02:37:03;;;;;;;0.10;0.10;;;;;;;;;;5095120;28;20036;-74
2023/04/24 02:39:28;;;;;;;0.10;0.10;;;;;;;;;;5095104;28;20028;-73
2023/04/24 02:41:54;;;;;;;0.10;0.10;;;;;;;;;;5076949;28;20024;-71
2023/04/24 02:44:19;;;;;;;0.75;0.75;;;;;;;;;;5094818;28;20028;-70
2023/04/24 02:46:44;;;;;;;0.30;0.30;;;;;;;;;;5094936;28;20094;-70
2023/04/24 02:49:11;;;;;;;0.10;0.10;;;;;;;;;;5095219;28;20044;-71
2023/04/24 02:51:40;;;;;;;0.10;0.10;;;;;;;;;;5095109;28;20036;-71
2023/04/24 02:54:06;;;;;;;0.10;0.10;;;;;;;;;;5095012;28;20035;-74
2023/04/24 02:56:32;;;;;;;0.10;0.10;;;;;;;;;;5094742;28;20051;-73
2023/04/24 02:58:58;;;;;;;21.67;3.50;;;;;;;;;;5076483;28;20040;-73
2023/04/24 03:01:24;;;;;;;0.10;0.10;;;;;;;;;;5076643;28;20490;-74
2023/04/24 03:03:50;;;;;;;0.20;0.20;;;;;;;;;;5070925;28;20123;-75
2023/04/24 03:06:15;;;;;;;0.10;0.10;;;;;;;;;;5091211;28;20812;-74
2023/04/24 03:08:41;;;;;;;0.10;0.10;;;;;;;;;;5090760;28;20028;-73
2023/04/24 03:11:06;;;;;;;0.10;0.10;;;;;;;;;;5090677;28;20551;-74
2023/04/24 03:13:31;;;;;;;0.17;0.17;;;;;;;;;;5090727;28;20039;-74
2023/04/24 03:15:57;;;;;;;0.20;0.20;;;;;;;;;;5090530;28;20089;-74
2023/04/24 03:18:22;;;;;;;10.80;2.22;;;;;;;;;;5072372;28;20032;-75
2023/04/24 03:20:49;;;;;;;0.10;0.10;;;;;;;;;;5055942;28;20036;-76
2023/04/24 03:23:15;;;;;;;0.10;0.10;;;;;;;;;;5055763;28;20058;-74
2023/04/24 03:25:42;;;;;;;0.10;0.10;;;;;;;;;;5072468;28;20038;-74
2023/04/24 03:28:09;;;;;;;0.20;0.20;;;;;;;;;;5072006;28;20039;-74
2023/04/24 03:30:41;;;;;;;0.10;0.10;;;;;;;;;;5090381;28;20128;-74
2023/04/24 03:33:08;;;;;;;0.10;0.10;;;;;;;;;;5072070;28;20068;-74
2023/04/24 03:35:37;;;;;;;0.20;0.20;;;;;;;;;;5072085;28;20024;-75
2023/04/24 03:38:07;;;;;;;0.20;0.20;;;;;;;;;;5072182;28;20054;-75
2023/04/24 03:40:41;;;;;;;0.10;0.10;;;;;;;;;;5090299;28;20081;-75
2023/04/24 03:43:21;;;;;;;0.10;0.10;;;;;;;;;;5057522;28;20032;-75
2023/04/24 03:45:46;;;;;;;0.10;0.10;;;;;;;;;;5071928;28;20044;-74
2023/04/24 03:48:13;;;;;;;0.10;0.10;;;;;;;;;;5072009;28;20039;-74
2023/04/24 03:50:39;;;;;;;0.25;0.25;;;;;;;;;;5092412;28;20048;-74
2023/04/24 03:53:08;;;;;;;0.10;0.10;;;;;;;;;;5058554;28;20132;-74
2023/04/24 03:55:37;;;;;;;0.10;0.10;;;;;;;;;;5072792;28;20046;-74
2023/04/24 03:58:03;;;;;;;0.10;0.10;;;;;;;;;;5071797;28;20036;-73
2023/04/24 04:00:31;;;;;;;0.25;0.25;;;;;;;;;;5071740;28;20043;-74
2023/04/24 04:03:16;;;;;;;0.47;0.47;;;;;;;;;;5089766;28;20048;-76
2023/04/24 04:05:42;;;;;;;0.40;0.40;;;;;;;;;;5071421;28;20050;-74
2023/04/24 04:08:08;;;;;;;1.23;1.17;;;;;;;;;;5071415;28;20036;-76
2023/04/24 04:10:33;;;;;;;1.38;1.30;;;;;;;;;;5071705;28;20067;-74
2023/04/24 04:12:58;;;;;;;0.20;0.20;;;;;;;;;;5089699;28;20028;-75
2023/04/24 04:15:24;;;;;;;0.10;0.10;;;;;;;;;;5089671;28;20060;-74
2023/04/24 04:17:50;;;;;;;0.13;0.13;;;;;;;;;;5070853;28;20096;-74
2023/04/24 04:20:15;;;;;;;0.20;0.20;;;;;;;;;;5071106;28;20063;-74
2023/04/24 04:22:41;;;;;;;0.10;0.10;;;;;;;;;;5089576;28;20078;-75
2023/04/24 04:25:08;;;;;;;0.20;0.20;;;;;;;;;;5070898;28;20036;-74
2023/04/24 04:27:35;;;;;;;0.10;0.10;;;;;;;;;;5071540;28;20047;-75
2023/04/24 04:30:06;;;;;;;0.20;0.20;;;;;;;;;;5070269;28;20035;-74
2023/04/24 04:32:40;;;;;;;0.10;0.10;;;;;;;;;;5070856;28;20036;-75
2023/04/24 04:35:06;;;;;;;0.10;0.10;;;;;;;;;;5087754;28;20153;-74
2023/04/24 04:37:33;;;;;;;0.20;0.20;;;;;;;;;;5070820;28;20039;-74
2023/04/24 04:40:18;;;;;;;0.50;0.50;;;;;;;;;;5075365;28;20499;-74
2023/04/24 04:42:53;;;;;;;0.20;0.20;;;;;;;;;;5070948;28;20032;-75
2023/04/24 04:45:20;;;;;;;0.10;0.10;;;;;;;;;;5070958;28;20047;-77
2023/04/24 04:48:07;;;;;;;0.10;0.10;;;;;;;;;;5087375;28;20039;-75
2023/04/24 04:50:33;;;;;;;0.10;0.10;;;;;;;;;;5071193;28;20121;-74
2023/04/24 04:53:05;;;;;;;1.08;1.00;;;;;;;;;;5071077;28;20081;-74
2023/04/24 04:55:34;;;;;;;0.20;0.20;;;;;;;;;;5070498;28;20042;-75
2023/04/24 04:58:09;;;;;;;0.20;0.20;;;;;;;;;;5069839;28;20043;-75
2023/04/24 05:00:37;;;;;;;0.10;0.10;;;;;;;;;;5069001;28;20033;-74
2023/04/24 05:03:11;;;;;;;0.20;0.20;;;;;;;;;;5070616;28;20079;-76
2023/04/24 05:05:40;;;;;;;0.10;0.10;;;;;;;;;;5068765;28;20523;-75
2023/04/24 05:08:08;;;;;;;0.10;0.10;;;;;;;;;;5061476;28;20119;-74
2023/04/24 05:10:34;;;;;;;0.10;0.10;;;;;;;;;;5069532;28;20036;-74
2023/04/24 05:13:00;;;;;;;0.10;0.10;;;;;;;;;;5068578;28;20068;-76
2023/04/24 05:15:26;;;;;;;0.20;0.20;;;;;;;;;;5059744;28;20043;-75
2023/04/24 05:17:51;;;;;;;0.20;0.20;;;;;;;;;;5033556;28;20041;-74
2023/04/24 05:20:17;;;;;;;0.17;0.17;;;;;;;;;;5060561;28;20121;-73
2023/04/24 05:22:42;;;;;;;0.30;0.30;;;;;;;;;;5036550;28;20471;-74
2023/04/24 05:25:08;;;;;;;0.20;0.20;;;;;;;;;;5066783;28;20086;-75
2023/04/24 05:27:41;;;;;;;0.10;0.10;;;;;;;;;;5050275;28;20495;-75
2023/04/24 05:30:13;;;;;;;0.10;0.10;;;;;;;;;;5050487;28;20534;-74
2023/04/24 05:32:39;;;;;;;0.10;0.10;;;;;;;;;;5050273;28;20044;-74
2023/04/24 05:35:05;;;;;;;0.20;0.20;;;;;;;;;;5080119;28;20036;-75
2023/04/24 05:37:30;;;;;;;0.30;0.30;;;;;;;;;;5071919;28;20055;-74
2023/04/24 05:39:56;;;;;;;7.68;6.03;;;;;;;;;;5049824;28;20043;-75
2023/04/24 05:42:22;;;;;;;0.43;0.38;;;;;;;;;;5061037;28;20425;-73
2023/04/24 05:44:49;;;;;;;0.15;0.15;;;;;;;;;;5066884;28;20256;-73
2023/04/24 05:47:15;;;;;;;0.20;0.20;;;;;;;;;;5068292;28;20028;-74
2023/04/24 05:49:41;;;;;;;0.77;0.77;;;;;;;;;;5049948;28;20141;-73
2023/04/24 05:52:08;;;;;;;0.10;0.10;;;;;;;;;;5049891;28;20039;-75
2023/04/24 05:54:35;;;;;;;0.20;0.20;;;;;;;;;;5050116;28;20047;-74
2023/04/24 05:57:07;;;;;;;0.10;0.10;;;;;;;;;;5034259;28;20040;-74
2023/04/24 05:59:47;;;;;;;0.10;0.10;;;;;;;;;;5051114;28;20037;-74
2023/04/24 06:02:13;;;;;;;0.10;0.10;;;;;;;;;;5051678;28;20028;-74
2023/04/24 06:04:38;;;;;;;0.10;0.10;;;;;;;;;;5069034;28;20057;-74
2023/04/24 06:07:04;;;;;;;0.10;0.10;;;;;;;;;;5049963;28;20036;-74
2023/04/24 06:09:29;;;;;;;0.10;0.10;;;;;;;;;;5050019;28;20041;-76
2023/04/24 06:11:56;;;;;;;0.10;0.10;;;;;;;;;;5052396;28;20039;-74
2023/04/24 06:14:27;;;;;;;4.38;4.03;;;;;;;;;;5063284;28;20037;-73
2023/04/24 06:17:11;;;;;;;0.40;0.40;;;;;;;;;;5079341;28;20047;-75
2023/04/24 06:19:40;;;;;;;0.20;0.20;;;;;;;;;;5052256;28;20044;-75
2023/04/24 06:22:06;;;;;;;0.13;0.13;;;;;;;;;;5053164;28;20032;-74
2023/04/24 06:24:32;;;;;;;0.10;0.10;;;;;;;;;;5083168;28;20394;-73
2023/04/24 06:26:58;;;;;;;1.45;1.35;;;;;;;;;;5069903;28;20066;-73
2023/04/24 06:29:24;;;;;;;0.75;0.68;;;;;;;;;;5053400;28;20451;-73
2023/04/24 06:31:49;;;;;;;0.47;0.30;;;;;;;;;;5052700;28;20044;-74
2023/04/24 06:34:15;;;;;;;0.20;0.20;;;;;;;;;;5070761;28;20082;-73
2023/04/24 06:36:41;;;;;;;6.30;2.10;;;;;;;;;;5053099;28;20040;-74
2023/04/24 06:39:06;;;;;;;0.50;0.50;;;;;;;;;;5070994;28;20103;-73
2023/04/24 06:41:32;;;;;;;4.68;1.60;;;;;;;;;;5036843;28;20059;-74
2023/04/24 06:43:57;;;;;;;0.55;0.38;;;;;;;;;;5071369;28;20040;-75
2023/04/24 06:46:25;;;;;;;4.47;1.35;;;;;;;;;;5070972;28;20403;-73
2023/04/24 06:48:51;;;;;;;5.07;2.28;;;;;;;;;;5070551;28;20029;-76
2023/04/24 06:51:17;;;;;;;1.55;0.82;;;;;;;;;;5052601;28;20054;-77
2023/04/24 06:53:43;;;;;;;5.47;1.70;;;;;;;;;;5078951;28;20086;-73
2023/04/24 06:56:08;;;;;;;5.22;1.23;;;;;;;;;;5072806;28;20040;-74
2023/04/24 06:58:34;;;;;;;8.20;1.27;;;;;;;;;;5091146;28;20086;-74
2023/04/24 07:01:00;;;;;;;3.28;0.80;;;;;;;;;;5072608;28;20164;-73
2023/04/24 07:03:25;;;;;;;4.63;1.55;;;;;;;;;;5090732;28;20429;-73
2023/04/24 07:05:51;;;;;;;0.10;0.10;;;;;;;;;;5090372;28;20028;-73
2023/04/24 07:08:17;;;;;;;0.32;0.32;;;;;;;;;;5090909;28;20037;-74
2023/04/24 07:10:43;;;;;;;1.77;0.30;;;;;;;;;;5090577;28;20067;-73
2023/04/24 07:13:08;;;;;;;0.30;0.25;;;;;;;;;;5090560;28;20059;-74
2023/04/24 07:15:34;;;;;;;0.20;0.20;;;;;;;;;;5090639;28;20026;-73
2023/04/24 07:18:00;;;;;;;6.40;2.10;;;;;;;;;;5071497;28;20073;-68
2023/04/24 07:20:25;;;;;;;1.75;0.85;;;;;;;;;;5088294;28;20365;-68
2023/04/24 07:22:51;;;;;;;0.10;0.10;;;;;;;;;;5082678;28;20036;-72
2023/04/24 07:25:17;;;;;;;0.22;0.22;;;;;;;;;;5088488;28;20055;-69
2023/04/24 07:27:42;;;;;;;0.30;0.30;;;;;;;;;;5075681;28;20081;-71
2023/04/24 07:30:08;;;;;;;0.10;0.10;;;;;;;;;;5083436;28;20028;-69
2023/04/24 07:32:34;;;;;;;0.10;0.10;;;;;;;;;;5079498;28;20063;-69
2023/04/24 07:34:59;;;;;;;5.88;1.25;;;;;;;;;;5081579;28;20036;-69
2023/04/24 07:37:25;;;;;;;0.50;0.40;;;;;;;;;;5090539;28;20043;-67
2023/04/24 07:39:50;;;;;;;2.00;1.17;;;;;;;;;;5088081;28;20032;-69
2023/04/24 07:42:16;;;;;;;4.80;2.10;;;;;;;;;;5076319;28;20395;-69
2023/04/24 07:44:41;;;;;;;1.10;0.52;;;;;;;;;;5067374;28;20039;-69
2023/04/24 07:47:07;;;;;;;8.95;1.65;;;;;;;;;;5088363;28;20054;-68
2023/04/24 07:49:34;;;;;;;12.25;2.92;;;;;;;;;;5071260;28;20126;-70
2023/04/24 07:52:01;;;;;;;7.47;2.70;;;;;;;;;;5090142;28;20118;-69
2023/04/24 07:54:27;;;;;;;8.00;3.35;;;;;;;;;;5071266;28;20107;-70
2023/04/24 07:56:52;;;;;;;10.30;2.33;;;;;;;;;;5083908;28;20465;-69
2023/04/24 07:59:17;;;;;;;9.50;3.58;;;;;;;;;;5082023;28;20047;-71
2023/04/24 08:01:43;;;;;;;6.47;2.58;;;;;;;;;;5071749;28;20024;-69
2023/04/24 08:04:08;;;;;;;10.35;2.50;;;;;;;;;;5058990;28;20036;-69
2023/04/24 08:06:34;;;;;;;3.95;1.48;;;;;;;;;;5076338;28;20067;-69
2023/04/24 08:09:00;;;;;;;2.08;0.70;;;;;;;;;;5080987;28;20063;-69
2023/04/24 08:11:25;;;;;;;10.45;2.38;;;;;;;;;;5078916;28;20101;-69
2023/04/24 08:13:51;;;;;;;9.32;2.67;;;;;;;;;;5082594;28;20380;-69
2023/04/24 08:16:16;;;;;;;4.47;0.90;;;;;;;;;;5070265;28;20115;-68
2023/04/24 08:18:42;;;;;;;7.55;2.35;;;;;;;;;;5073505;28;20032;-70
2023/04/24 08:21:07;;;;;;;5.63;1.05;;;;;;;;;;5087077;28;20039;-70
2023/04/24 08:23:33;;;;;;;0.10;0.10;;;;;;;;;;5071744;28;20036;-70
2023/04/24 08:25:58;;;;;;;5.00;1.73;;;;;;;;;;5087756;28;20161;-70
2023/04/24 08:28:24;;;;;;;11.30;1.55;;;;;;;;;;5072302;28;20082;-69
2023/04/24 08:30:54;;;;;;;8.23;2.35;;;;;;;;;;5069465;28;20032;-69
2023/04/24 08:33:20;;;;;;;6.78;1.85;;;;;;;;;;5079806;28;20040;-70
2023/04/24 08:35:46;;;;;;;2.78;1.73;;;;;;;;;;5069289;28;20051;-70
2023/04/24 08:38:11;;;;;;;0.30;0.30;;;;;;;;;;5078914;28;20044;-69
2023/04/24 08:40:37;;;;;;;0.63;0.60;;;;;;;;;;5087480;28;20479;-69
2023/04/24 08:43:03;;;;;;;0.30;0.30;;;;;;;;;;5087180;28;20027;-68
2023/04/24 08:45:29;;;;;;;6.85;1.23;;;;;;;;;;5089545;28;20114;-69
2023/04/24 08:47:54;;;;;;;7.70;2.30;;;;;;;;;;5067755;28;20150;-73
2023/04/24 08:50:20;;;;;;;6.95;2.05;;;;;;;;;;5054854;28;20028;-80
2023/04/24 08:52:47;;;;;;;0.30;0.30;;;;;;;;;;5063463;28;20028;-76
2023/04/24 08:55:12;;;;;;;8.60;2.25;;;;;;;;;;5075035;28;20086;-72
2023/04/24 08:57:40;;;;;;;6.00;1.70;;;;;;;;;;5086664;28;20032;-74
2023/04/24 09:00:05;;;;;;;2.22;1.10;;;;;;;;;;5082316;28;20035;-80
2023/04/24 09:02:31;;;;;;;6.63;2.30;;;;;;;;;;5082109;28;20371;-75
2023/04/24 09:04:57;;;;;;;8.80;3.17;;;;;;;;;;5069567;28;20159;-73
2023/04/24 09:07:25;;;;;;;1.65;0.90;;;;;;;;;;5080013;28;20117;-75
2023/04/24 09:09:51;;;;;;;7.00;1.83;;;;;;;;;;5073000;28;20062;-72
2023/04/24 09:12:17;;;;;;;8.68;0.80;;;;;;;;;;5082357;28;20024;-73
2023/04/24 09:14:44;;;;;;;1.88;0.68;;;;;;;;;;5088824;28;20471;-72
2023/04/24 09:17:10;;;;;;;10.20;2.30;;;;;;;;;;5088725;28;20044;-73
2023/04/24 09:19:36;;;;;;;11.25;2.70;;;;;;;;;;5084890;28;20058;-73
2023/04/24 09:22:04;;;;;;;12.05;2.58;;;;;;;;;;5086904;28;20043;-72
2023/04/24 09:24:30;;;;;;;3.10;1.58;;;;;;;;;;5070145;28;20036;-74
2023/04/24 09:26:58;;;;;;;8.40;1.80;;;;;;;;;;5086256;28;20061;-74
2023/04/24 09:29:24;;;;;;;2.72;1.75;;;;;;;;;;5077854;28;20064;-76
2023/04/24 09:31:49;;;;;;;3.85;1.38;;;;;;;;;;5081505;28;20067;-75
2023/04/24 09:34:20;;;;;;;8.07;2.83;;;;;;;;;;5088548;28;20032;-73
2023/04/24 09:36:46;;;;;;;7.10;2.08;;;;;;;;;;5087271;28;20035;-74
2023/04/24 09:39:12;;;;;;;12.32;2.72;;;;;;;;;;5088612;28;20036;-73
2023/04/24 09:41:44;;;;;;;12.45;2.78;;;;;;;;;;5088509;28;20063;-75
2023/04/24 09:44:17;;;;;;;16.95;3.13;;;;;;;;;;5070291;28;20521;-74
2023/04/24 09:46:44;;;;;;;7.28;1.45;;;;;;;;;;5067505;28;20391;-75
2023/04/24 09:49:15;;;;;;;5.20;1.80;;;;;;;;;;5087959;28;20122;-73
2023/04/24 09:51:40;;;;;;;3.03;1.13;;;;;;;;;;5088316;28;20031;-74
2023/04/24 09:54:16;;;;;;;6.18;2.15;;;;;;;;;;5071359;28;20034;-74
2023/04/24 09:56:43;;;;;;;6.88;3.00;;;;;;;;;;5073939;28;20043;-75
2023/04/24 09:59:08;;;;;;;3.30;1.50;;;;;;;;;;5091647;28;20028;-73
2023/04/24 10:01:34;;;;;;;7.25;2.38;;;;;;;;;;5092192;28;20372;-72
2023/04/24 10:04:00;;;;;;;3.17;1.80;;;;;;;;;;5091439;28;20109;-74
2023/04/24 10:06:35;;;;;;;12.18;2.35;;;;;;;;;;5073878;28;20382;-74
2023/04/24 10:09:01;;;;;;;10.75;2.78;;;;;;;;;;5091681;28;20193;-76
2023/04/24 10:11:27;;;;;;;6.22;1.95;;;;;;;;;;5091901;28;20039;-74
2023/04/24 10:13:53;;;;;;;3.08;0.93;;;;;;;;;;5091283;28;20545;-74
2023/04/24 10:16:19;;;;;;;13.52;2.45;;;;;;;;;;5093253;28;20035;-75
2023/04/24 10:18:45;;;;;;;8.02;2.15;;;;;;;;;;5076188;28;20042;-75
2023/04/24 10:21:10;;;;;;;5.32;1.67;;;;;;;;;;5093987;28;20036;-73
2023/04/24 10:23:36;;;;;;;3.92;1.77;;;;;;;;;;5088119;28;20067;-73
2023/04/24 10:26:02;;;;;;;5.40;1.60;;;;;;;;;;5072517;28;20028;-73
2023/04/24 10:28:28;;;;;;;4.53;1.08;;;;;;;;;;5073634;28;20113;-77
2023/04/24 10:30:54;;;;;;;9.48;2.85;;;;;;;;;;5090238;28;20028;-73
2023/04/24 10:33:20;;;;;;;2.05;0.68;;;;;;;;;;5070748;28;20045;-73
2023/04/24 10:35:48;;;;;;;4.32;0.65;;;;;;;;;;5073073;28;20050;-75
2023/04/24 10:38:16;;;;;;;12.88;4.25;;;;;;;;;;5090868;28;20073;-74
2023/04/24 10:40:42;;;;;;;11.45;2.42;;;;;;;;;;5088718;28;20032;-73
2023/04/24 10:43:11;;;;;;;2.72;0.88;;;;;;;;;;5053844;28;20111;-73
2023/04/24 10:45:38;;;;;;;5.55;0.73;;;;;;;;;;5088838;28;20044;-73
2023/04/24 10:48:13;;;;;;;1.95;0.90;;;;;;;;;;5069499;28;20071;-73
2023/04/24 10:50:42;;;;;;;6.70;1.63;;;;;;;;;;5089257;28;20483;-73
2023/04/24 10:53:12;;;;;;;8.25;1.35;;;;;;;;;;5089549;28;20032;-74
2023/04/24 10:55:43;;;;;;;8.55;2.08;;;;;;;;;;5084442;28;20060;-72
2023/04/24 10:58:10;;;;;;;7.40;1.30;;;;;;;;;;5088763;28;20044;-71
2023/04/24 11:00:39;;;;;;;4.60;1.65;;;;;;;;;;5090942;28;21044;-71
2023/04/24 11:03:05;;;;;;;;;;;;;;;;;;5087127;28;20475;-71
2023/04/24 11:05:53;;;;;;;10.07;1.57;;;;;;;;;;5088243;28;20003;-71
2023/04/24 11:08:23;;;;;;;2.40;0.75;;;;;;;;;;5090675;28;20362;-73
2023/04/24 11:10:55;;;;;;;2.70;0.93;;;;;;;;;;5090575;28;20032;-73
2023/04/24 11:13:28;;;;;;;7.45;1.63;;;;;;;;;;5072344;28;20032;-72
2023/04/24 11:16:13;;;;;;;6.60;1.05;;;;;;;;;;5088360;28;20031;-72
2023/04/24 11:18:40;;;;;;;5.25;1.90;;;;;;;;;;5072389;28;20391;-72
2023/04/24 11:21:17;;;;;;;9.93;2.63;;;;;;;;;;5069212;28;20028;-74
2023/04/24 11:23:44;;;;;;;8.88;2.22;;;;;;;;;;5070317;28;20029;-73
2023/04/24 11:26:10;;;;;;;3.58;1.20;;;;;;;;;;5066729;28;20032;-72
2023/04/24 11:28:36;;;;;;;9.07;2.15;;;;;;;;;;5051852;28;20040;-71
2023/04/24 11:31:21;;;;;;;6.35;1.95;;;;;;;;;;5069997;28;20027;-72
2023/04/24 11:33:47;;;;;;;7.32;0.95;;;;;;;;;;5071471;28;20107;-72
2023/04/24 11:36:12;;;;;;;3.92;1.08;;;;;;;;;;5063939;28;20452;-73
2023/04/24 11:38:38;;;;;;;19.30;3.47;;;;;;;;;;5080603;28;20477;-71
2023/04/24 11:41:06;;;;;;;10.32;1.90;;;;;;;;;;5044680;28;20028;-71
2023/04/24 11:43:32;;;;;;;6.10;1.30;;;;;;;;;;5082041;28;20142;-71
2023/04/24 11:45:59;;;;;;;18.95;3.65;;;;;;;;;;5074708;28;20511;-72
2023/04/24 11:48:25;;;;;;;11.30;2.05;;;;;;;;;;5066897;28;20039;-71
2023/04/24 11:50:51;;;;;;;5.88;1.90;;;;;;;;;;5088421;28;20584;-71
2023/04/24 11:53:19;;;;;;;8.77;2.42;;;;;;;;;;5089883;28;20036;-71
2023/04/24 11:55:44;;;;;;;4.43;1.15;;;;;;;;;;5079153;28;20028;-72
2023/04/24 11:58:10;;;;;;;13.75;3.60;;;;;;;;;;5089414;28;20062;-71
2023/04/24 12:00:36;;;;;;;3.50;1.67;;;;;;;;;;5089080;28;20072;-71
2023/04/24 12:03:08;;;;;;;3.67;1.05;;;;;;;;;;5083025;28;20043;-70
2023/04/24 12:05:34;;;;;;;10.55;2.65;;;;;;;;;;5087569;28;20063;-71
2023/04/24 12:08:00;;;;;;;14.65;2.70;;;;;;;;;;5089474;28;20063;-72
2023/04/24 12:10:26;;;;;;;4.97;1.73;;;;;;;;;;5085254;28;20070;-71
2023/04/24 12:12:52;;;;;;;17.40;2.80;;;;;;;;;;5075921;28;20077;-72
2023/04/24 12:15:22;;;;;;;18.17;2.72;;;;;;;;;;5086006;28;20028;-74
2023/04/24 12:17:50;;;;;;;8.25;1.10;;;;;;;;;;5082887;28;20041;-71
2023/04/24 12:20:16;;;;;;;3.97;1.20;;;;;;;;;;5068947;28;20085;-71
2023/04/24 12:22:46;;;;;;;7.15;1.05;;;;;;;;;;5067661;28;20368;-72
2023/04/24 12:25:12;;;;;;;10.05;2.65;;;;;;;;;;5064412;28;20036;-72
2023/04/24 12:27:38;;;;;;;22.20;3.25;;;;;;;;;;5084891;28;20032;-73
2023/04/24 12:30:05;;;;;;;6.40;2.35;;;;;;;;;;5089501;28;20035;-73
2023/04/24 12:32:31;;;;;;;6.55;1.05;;;;;;;;;;5078275;28;20037;-72
2023/04/24 12:34:56;;;;;;;1.95;0.98;;;;;;;;;;5080268;28;20020;-72
2023/04/24 12:37:25;;;;;;;8.05;1.80;;;;;;;;;;5067985;28;20501;-73
2023/04/24 12:40:03;;;;;;;5.75;1.70;;;;;;;;;;5080214;28;20027;-72
2023/04/24 12:42:30;;;;;;;12.13;1.60;;;;;;;;;;5080012;28;20036;-73
2023/04/24 12:45:05;;;;;;;11.70;1.83;;;;;;;;;;5088622;28;20025;-73
2023/04/24 12:47:31;;;;;;;13.32;2.72;;;;;;;;;;5071310;28;20039;-73
2023/04/24 12:49:57;;;;;;;0.70;0.68;;;;;;;;;;5088921;28;20038;-72
2023/04/24 12:52:23;;;;;;;4.88;0.98;;;;;;;;;;5089490;28;20119;-72
2023/04/24 12:54:53;;;;;;;7.20;1.30;;;;;;;;;;5071350;28;20031;-75
2023/04/24 12:57:18;;;;;;;;;;;;;;;;;;5071564;28;20660;-73
2023/04/24 12:59:44;;;;;;;1.90;0.87;;;;;;;;;;5087227;28;19912;-72
2023/04/24 13:02:10;;;;;;;6.82;1.92;;;;;;;;;;5068992;28;20032;-72
2023/04/24 13:04:36;;;;;;;3.58;1.42;;;;;;;;;;5088201;28;20036;-73
2023/04/24 13:07:01;;;;;;;12.43;1.73;;;;;;;;;;5070212;28;20062;-73
2023/04/24 13:09:27;;;;;;;8.20;1.88;;;;;;;;;;5070053;28;20039;-72
2023/04/24 13:11:53;;;;;;;3.83;2.38;;;;;;;;;;5087908;28;20071;-72
2023/04/24 13:14:18;;;;;;;8.88;2.30;;;;;;;;;;5089509;28;20111;-73
2023/04/24 13:16:44;;;;;;;8.48;1.85;;;;;;;;;;5070396;28;20420;-72
2023/04/24 13:19:10;;;;;;;14.10;2.63;;;;;;;;;;5087627;28;20039;-72
2023/04/24 13:21:35;;;;;;;10.45;2.50;;;;;;;;;;5086969;28;20581;-74
2023/04/24 13:24:01;;;;;;;2.33;0.98;;;;;;;;;;5086588;28;20364;-71
2023/04/24 13:26:26;;;;;;;0.50;0.40;;;;;;;;;;5087391;28;20039;-73
2023/04/24 13:28:51;;;;;;;12.70;2.25;;;;;;;;;;5070186;28;20040;-72
2023/04/24 13:31:17;;;;;;;4.95;1.75;;;;;;;;;;5090673;28;20480;-74
2023/04/24 13:33:42;;;;;;;9.27;2.13;;;;;;;;;;5072573;28;20028;-72
2023/04/24 13:36:08;;;;;;;8.05;1.98;;;;;;;;;;5073830;28;20123;-72
2023/04/24 13:38:34;;;;;;;6.53;2.15;;;;;;;;;;5074119;28;20032;-73
2023/04/24 13:40:59;;;;;;;4.57;2.35;;;;;;;;;;5091646;28;20032;-74
2023/04/24 13:43:25;;;;;;;1.75;0.65;;;;;;;;;;5092180;28;20077;-73
2023/04/24 13:45:50;;;;;;;4.80;1.80;;;;;;;;;;5070128;28;20107;-74
2023/04/24 13:48:16;;;;;;;6.55;2.25;;;;;;;;;;5083271;28;20024;-72
2023/04/24 13:50:42;;;;;;;5.72;1.45;;;;;;;;;;5091971;28;20040;-72
2023/04/24 13:53:08;;;;;;;6.45;1.45;;;;;;;;;;5092061;28;20063;-73
2023/04/24 13:55:33;;;;;;;3.95;0.77;;;;;;;;;;5091972;28;20071;-72
2023/04/24 13:57:59;;;;;;;10.90;2.22;;;;;;;;;;5091342;28;20036;-73
2023/04/24 14:00:24;;;;;;;7.18;1.58;;;;;;;;;;5072373;28;20039;-73
2023/04/24 14:02:50;;;;;;;0.20;0.20;;;;;;;;;;5064416;28;20411;-73
2023/04/24 14:05:15;;;;;;;18.23;2.67;;;;;;;;;;5071468;28;20063;-73
2023/04/24 14:07:41;;;;;;;1.35;0.82;;;;;;;;;;5078781;28;20025;-72
2023/04/24 14:10:07;;;;;;;6.57;1.50;;;;;;;;;;5079923;28;20039;-72
2023/04/24 14:12:33;;;;;;;7.97;2.33;;;;;;;;;;5082095;28;20059;-71
2023/04/24 14:14:58;;;;;;;7.80;2.95;;;;;;;;;;5080419;28;20025;-72
2023/04/24 14:17:24;;;;;;;9.45;2.42;;;;;;;;;;5085611;28;20360;-72
2023/04/24 14:19:51;;;;;;;6.43;2.20;;;;;;;;;;5091221;28;20093;-72
2023/04/24 14:22:17;;;;;;;3.38;1.20;;;;;;;;;;5091656;28;20132;-71
2023/04/24 14:24:42;;;;;;;2.83;0.63;;;;;;;;;;5091207;28;20114;-71
2023/04/24 14:27:08;;;;;;;4.80;1.42;;;;;;;;;;5071713;28;20498;-72
2023/04/24 14:29:33;;;;;;;2.40;0.82;;;;;;;;;;5082238;28;20062;-72
2023/04/24 14:31:58;;;;;;;14.65;3.80;;;;;;;;;;5072019;28;20045;-73
2023/04/24 14:34:24;;;;;;;5.43;2.42;;;;;;;;;;5053925;28;20021;-73
2023/04/24 14:36:49;;;;;;;2.72;0.88;;;;;;;;;;5071524;28;20040;-73
2023/04/24 14:39:14;;;;;;;3.78;1.80;;;;;;;;;;5073321;28;20028;-73
2023/04/24 14:41:40;;;;;;;14.25;2.40;;;;;;;;;;5058255;28;20029;-72